Terminal Aerodrome Forecast
Issued by NWS

Home | Current Version | Previous Version | Text Only | Print | Product List | Glossary On
Versions: 1 2 3 4 5 6 7 8 9 10 11 12 13 14 15 16
174
FTUS43 KMPX 271720
TAFRWF
TAF
KRWF 271720Z 2718/2818 02006KT P6SM SCT040
     FM280200 VRB02KT P6SM SKC
     FM281600 10005KT P6SM SCT060=

USA.gov is the U.S. government's official web portal to all federal, state and local government web resources and services.